Time;durP1;ratioP1;P1;durP2;ratioP2;P2;SDS_P1;SDS_P2;PMS_P1;PMS_P2;Temp;Humidity;BMP_temperature;BMP_pressure;BME280_temperature;BME280_humidity;BME280_pressure;Samples;Min_cycle;Max_cycle;Signal;HPM_P1;HPM_P2
2020/12/20 00:00:13;;;;;;;19.67;15.40;;;10.10;96.70;;;;;;4945235;28;20051;-86
2020/12/20 00:02:46;;;;;;;19.23;15.38;;;10.10;96.70;;;;;;4947510;28;20039;-85
2020/12/20 00:05:14;;;;;;;19.70;14.63;;;10.10;96.70;;;;;;4946367;29;20071;-86
2020/12/20 00:07:41;;;;;;;19.08;15.52;;;10.00;96.70;;;;;;4953618;28;20049;-86
2020/12/20 00:10:08;;;;;;;17.13;13.93;;;10.00;96.70;;;;;;4946494;28;20039;-86
2020/12/20 00:12:35;;;;;;;17.55;13.88;;;10.00;96.70;;;;;;4929978;29;20486;-85
2020/12/20 00:15:03;;;;;;;16.85;14.13;;;10.00;96.70;;;;;;4943213;28;20561;-86
2020/12/20 00:17:31;;;;;;;18.45;14.50;;;10.00;96.70;;;;;;4951322;28;20044;-86
2020/12/20 00:19:59;;;;;;;16.30;13.73;;;10.00;96.70;;;;;;4948723;28;20095;-86
2020/12/20 00:22:27;;;;;;;15.45;12.95;;;10.00;96.70;;;;;;4943147;28;20106;-83
2020/12/20 00:24:54;;;;;;;17.55;14.07;;;10.00;96.70;;;;;;4943517;29;20043;-82
2020/12/20 00:27:21;;;;;;;19.10;13.90;;;9.90;96.70;;;;;;4946745;28;20058;-83
2020/12/20 00:29:49;;;;;;;17.02;13.70;;;9.90;96.70;;;;;;4942411;28;20043;-82
2020/12/20 00:32:16;;;;;;;18.83;15.30;;;9.90;96.70;;;;;;4941003;28;20039;-83
2020/12/20 00:34:43;;;;;;;22.27;16.95;;;10.00;96.70;;;;;;4928316;29;20337;-82
2020/12/20 00:37:11;;;;;;;19.40;15.57;;;9.90;96.70;;;;;;4945263;28;20063;-83
2020/12/20 00:39:39;;;;;;;23.00;17.58;;;9.90;96.70;;;;;;4944078;28;20039;-83
2020/12/20 00:42:07;;;;;;;25.70;19.33;;;9.90;96.70;;;;;;4941858;28;20552;-82
2020/12/20 00:44:35;;;;;;;24.90;18.73;;;9.90;96.70;;;;;;4943970;28;20577;-83
2020/12/20 00:47:04;;;;;;;23.25;18.67;;;9.90;96.70;;;;;;4947671;28;20055;-83
2020/12/20 00:49:32;;;;;;;23.98;18.77;;;9.90;96.70;;;;;;4939618;28;20043;-83
2020/12/20 00:52:01;;;;;;;23.30;18.38;;;9.90;96.70;;;;;;4950384;28;20419;-83
2020/12/20 00:54:28;;;;;;;25.58;19.50;;;9.90;96.70;;;;;;4942934;29;20031;-83
2020/12/20 00:56:57;;;;;;;24.88;18.13;;;9.90;96.70;;;;;;4942540;28;20050;-83
2020/12/20 00:59:25;;;;;;;23.58;18.95;;;9.90;96.70;;;;;;4942565;28;20596;-82
2020/12/20 01:01:56;;;;;;;23.88;18.25;;;9.80;96.70;;;;;;4941289;29;20043;-83
2020/12/20 01:04:24;;;;;;;21.23;18.33;;;9.80;96.70;;;;;;4945316;28;20577;-83
2020/12/20 01:06:54;;;;;;;22.17;17.90;;;9.80;96.70;;;;;;4944818;28;20505;-82
2020/12/20 01:09:24;;;;;;;20.13;16.50;;;9.90;96.70;;;;;;4945304;28;20070;-84
2020/12/20 01:11:52;;;;;;;22.83;17.60;;;9.90;96.70;;;;;;4947194;28;20039;-83
2020/12/20 01:14:23;;;;;;;22.30;16.83;;;9.90;96.70;;;;;;4932029;28;20126;-83
2020/12/20 01:17:01;;;;;;;21.00;15.90;;;9.90;96.70;;;;;;4933367;28;20137;-83
2020/12/20 01:19:42;;;;;;;20.15;16.17;;;9.90;96.70;;;;;;4956857;28;20047;-83
2020/12/20 01:22:10;;;;;;;18.90;15.65;;;9.90;96.70;;;;;;4942997;28;20058;-86
2020/12/20 01:24:38;;;;;;;21.02;15.30;;;9.90;96.70;;;;;;4932479;28;20074;-83
2020/12/20 01:27:12;;;;;;;18.33;15.05;;;9.90;96.70;;;;;;4945539;28;20052;-83
2020/12/20 01:29:41;;;;;;;18.58;14.98;;;9.90;96.70;;;;;;4930638;28;20548;-83
2020/12/20 01:32:08;;;;;;;20.88;15.95;;;9.90;96.70;;;;;;4943433;28;20538;-83
2020/12/20 01:34:38;;;;;;;18.02;15.38;;;9.90;96.70;;;;;;4948676;28;20466;-83
2020/12/20 01:37:06;;;;;;;20.88;15.90;;;9.90;96.70;;;;;;4942097;28;20054;-82
2020/12/20 01:39:39;;;;;;;19.70;15.25;;;9.90;96.70;;;;;;4931629;29;20050;-83
2020/12/20 01:42:06;;;;;;;22.10;16.55;;;10.00;96.70;;;;;;4959454;28;20141;-83
2020/12/20 01:44:39;;;;;;;17.10;14.98;;;9.90;96.70;;;;;;4957865;28;20075;-83
2020/12/20 01:47:08;;;;;;;20.65;15.55;;;9.90;96.70;;;;;;4927829;28;20040;-83
2020/12/20 01:49:38;;;;;;;19.23;14.93;;;9.90;96.70;;;;;;4928774;29;20065;-83
2020/12/20 01:52:07;;;;;;;18.20;15.85;;;9.90;96.70;;;;;;4939943;28;20055;-85
2020/12/20 01:54:35;;;;;;;19.00;15.95;;;10.00;96.70;;;;;;4942225;28;20059;-85
2020/12/20 01:57:09;;;;;;;20.00;15.57;;;9.90;96.70;;;;;;4927108;28;20045;-86
2020/12/20 01:59:46;;;;;;;19.13;14.57;;;9.90;96.70;;;;;;4931802;29;20186;-85
2020/12/20 02:02:15;;;;;;;18.55;15.07;;;9.90;96.70;;;;;;4947294;28;20517;-86
2020/12/20 02:04:47;;;;;;;17.52;14.57;;;9.90;96.70;;;;;;4933225;29;20115;-86
2020/12/20 02:07:15;;;;;;;17.30;15.43;;;9.90;96.70;;;;;;4944466;28;20130;-86
2020/12/20 02:09:46;;;;;;;20.00;15.30;;;9.90;96.70;;;;;;4931919;28;20546;-86
2020/12/20 02:12:16;;;;;;;19.67;15.15;;;9.80;96.70;;;;;;4951544;28;20051;-86
2020/12/20 02:14:57;;;;;;;17.25;14.00;;;9.90;96.70;;;;;;4944471;28;20049;-86
2020/12/20 02:17:26;;;;;;;16.13;13.98;;;9.90;96.70;;;;;;4947514;28;20059;-85
2020/12/20 02:19:53;;;;;;;18.23;13.90;;;9.90;96.70;;;;;;4947058;28;20054;-86
2020/12/20 02:22:41;;;;;;;15.05;13.45;;;9.90;96.70;;;;;;4942085;28;20062;-86
2020/12/20 02:25:09;;;;;;;16.25;13.27;;;10.00;96.70;;;;;;4947603;28;20102;-86
2020/12/20 02:27:51;;;;;;;18.63;14.32;;;10.00;96.70;;;;;;4946442;29;20050;-85
2020/12/20 02:30:22;;;;;;;17.83;13.52;;;10.00;96.70;;;;;;4931058;28;20058;-85
2020/12/20 02:32:51;;;;;;;17.75;14.85;;;10.00;96.70;;;;;;4945938;29;20529;-87
2020/12/20 02:35:18;;;;;;;17.92;13.75;;;10.00;96.70;;;;;;4946295;28;20055;-86
2020/12/20 02:37:47;;;;;;;17.35;14.18;;;10.00;96.70;;;;;;4960500;28;20058;-86
2020/12/20 02:40:15;;;;;;;19.70;14.57;;;10.00;96.70;;;;;;4946000;29;20442;-86
2020/12/20 02:42:49;;;;;;;14.68;12.93;;;10.00;96.70;;;;;;4950476;28;20059;-86
2020/12/20 02:45:16;;;;;;;17.40;13.85;;;10.00;96.70;;;;;;4944541;28;20131;-86
2020/12/20 02:47:44;;;;;;;15.25;13.63;;;10.00;96.70;;;;;;4950496;28;20039;-85
2020/12/20 02:50:13;;;;;;;15.65;13.55;;;10.00;96.70;;;;;;4945895;29;20047;-86
2020/12/20 02:52:42;;;;;;;16.33;14.30;;;10.00;96.70;;;;;;4941947;28;20043;-86
2020/12/20 02:55:12;;;;;;;19.45;13.55;;;10.00;96.70;;;;;;4926572;29;20039;-87
2020/12/20 02:57:45;;;;;;;17.60;13.27;;;10.00;96.70;;;;;;4945432;29;20051;-87
2020/12/20 03:00:21;;;;;;;18.27;13.70;;;10.00;96.70;;;;;;4945064;28;20038;-87
2020/12/20 03:02:50;;;;;;;16.52;13.57;;;9.90;96.70;;;;;;4947439;28;20027;-87
2020/12/20 03:05:17;;;;;;;20.10;14.38;;;9.90;96.70;;;;;;4930659;28;20050;-87
2020/12/20 03:07:49;;;;;;;16.10;13.18;;;9.80;96.70;;;;;;4932212;29;20391;-86
2020/12/20 03:10:18;;;;;;;16.77;14.25;;;9.80;96.70;;;;;;4945501;28;20109;-87
2020/12/20 03:12:47;;;;;;;18.58;12.93;;;9.80;96.70;;;;;;4947627;28;20031;-87
2020/12/20 03:15:18;;;;;;;17.27;14.10;;;9.90;96.70;;;;;;4947218;28;20083;-86
2020/12/20 03:17:47;;;;;;;15.27;12.93;;;9.90;96.70;;;;;;4931500;29;20047;-86
2020/12/20 03:20:16;;;;;;;18.08;14.10;;;9.90;96.70;;;;;;4960808;28;20061;-87
2020/12/20 03:22:45;;;;;;;16.75;13.52;;;9.90;96.70;;;;;;4930129;29;20101;-87
2020/12/20 03:25:23;;;;;;;;;;;9.90;96.70;;;;;;4947381;28;20052;-87
2020/12/20 03:27:59;;;;;;;16.55;13.48;;;9.90;96.70;;;;;;4944747;28;19937;-85
2020/12/20 03:30:39;;;;;;;16.17;13.50;;;9.90;96.70;;;;;;4943893;28;20043;-86
2020/12/20 03:33:15;;;;;;;17.20;13.38;;;9.90;96.70;;;;;;4945122;29;20063;-87
2020/12/20 03:35:53;;;;;;;16.17;12.48;;;9.90;96.70;;;;;;4946230;28;20138;-87
2020/12/20 03:38:21;;;;;;;18.10;14.10;;;9.90;96.70;;;;;;4945206;28;20081;-87
2020/12/20 03:40:50;;;;;;;16.10;12.77;;;9.90;96.70;;;;;;4948270;28;20039;-87
2020/12/20 03:43:19;;;;;;;15.93;13.27;;;10.00;96.70;;;;;;4929075;29;20039;-86
2020/12/20 03:45:53;;;;;;;18.10;13.95;;;10.00;96.70;;;;;;4946919;29;20390;-87
2020/12/20 03:48:29;;;;;;;16.48;13.73;;;10.00;96.70;;;;;;4947989;28;20035;-86
2020/12/20 03:51:12;;;;;;;14.73;12.88;;;10.00;96.70;;;;;;4930159;29;20498;-86
2020/12/20 03:53:44;;;;;;;17.05;13.68;;;10.00;96.70;;;;;;4942284;28;20039;-86
2020/12/20 03:56:15;;;;;;;18.45;14.68;;;10.00;96.70;;;;;;4949929;28;20039;-87
2020/12/20 03:58:49;;;;;;;16.42;13.70;;;10.00;96.70;;;;;;4944272;28;20062;-85
2020/12/20 04:01:17;;;;;;;17.88;14.27;;;10.00;96.70;;;;;;4942378;28;20102;-87
2020/12/20 04:03:45;;;;;;;16.85;14.13;;;10.00;96.70;;;;;;4927557;29;20053;-87
2020/12/20 04:06:13;;;;;;;17.17;13.75;;;10.10;96.70;;;;;;4929742;29;20051;-85
2020/12/20 04:08:40;;;;;;;15.30;13.18;;;10.10;96.70;;;;;;4946029;28;20314;-86
2020/12/20 04:11:21;;;;;;;15.52;13.57;;;10.10;96.70;;;;;;4947008;28;20267;-86
2020/12/20 04:13:49;;;;;;;18.40;13.88;;;10.10;96.70;;;;;;4947339;28;20088;-87
2020/12/20 04:16:17;;;;;;;16.73;14.48;;;10.10;96.70;;;;;;4946206;28;20040;-86
2020/12/20 04:18:44;;;;;;;15.10;13.15;;;10.10;96.70;;;;;;4944106;28;20121;-87
2020/12/20 04:21:30;;;;;;;18.90;14.65;;;10.10;96.70;;;;;;4931490;28;20055;-86
2020/12/20 04:23:59;;;;;;;17.85;13.63;;;10.10;96.70;;;;;;4945804;28;20047;-86
2020/12/20 04:26:29;;;;;;;16.33;13.13;;;10.10;96.70;;;;;;4944205;29;20062;-86
2020/12/20 04:29:06;;;;;;;16.23;13.73;;;10.10;96.70;;;;;;4952816;28;20062;-87
2020/12/20 04:31:40;;;;;;;17.98;14.57;;;10.10;96.70;;;;;;4946761;28;20067;-85
2020/12/20 04:34:09;;;;;;;15.30;13.18;;;10.00;96.70;;;;;;4931345;28;20098;-86
2020/12/20 04:36:37;;;;;;;15.07;12.88;;;10.10;96.70;;;;;;4945487;28;20335;-87
2020/12/20 04:39:21;;;;;;;16.23;13.13;;;10.10;96.70;;;;;;4946124;28;20063;-87
2020/12/20 04:41:49;;;;;;;17.85;13.25;;;10.00;96.70;;;;;;4943909;28;20042;-87
2020/12/20 04:44:17;;;;;;;14.38;12.88;;;10.00;96.70;;;;;;4946051;28;20050;-87
2020/12/20 04:46:49;;;;;;;17.63;13.27;;;9.90;96.70;;;;;;4947163;28;20510;-85
2020/12/20 04:49:30;;;;;;;17.30;13.82;;;9.90;96.70;;;;;;4945500;29;20505;-86
2020/12/20 04:52:03;;;;;;;17.70;13.63;;;9.90;96.70;;;;;;4932972;28;20055;-86
2020/12/20 04:54:35;;;;;;;17.38;14.63;;;9.90;96.70;;;;;;4949085;28;20081;-86
2020/12/20 04:57:06;;;;;;;18.33;14.27;;;9.90;96.70;;;;;;4949085;28;20054;-86
2020/12/20 04:59:38;;;;;;;17.08;14.93;;;9.90;96.70;;;;;;4944106;29;20094;-87
2020/12/20 05:02:11;;;;;;;17.73;14.90;;;9.90;96.70;;;;;;4955195;28;20528;-85
2020/12/20 05:04:39;;;;;;;18.38;14.60;;;9.90;96.70;;;;;;4928551;29;20111;-86
2020/12/20 05:07:10;;;;;;;17.98;14.48;;;9.90;96.70;;;;;;4946607;28;20039;-85
2020/12/20 05:09:51;;;;;;;15.68;13.95;;;9.90;96.70;;;;;;4942215;28;20036;-86
2020/12/20 05:12:34;;;;;;;16.75;14.90;;;9.90;96.70;;;;;;4960376;28;20047;-83
2020/12/20 05:15:19;;;;;;;19.13;15.05;;;9.90;96.70;;;;;;4929150;29;20219;-83
2020/12/20 05:18:03;;;;;;;19.45;14.50;;;9.90;96.70;;;;;;4924955;29;20481;-83
2020/12/20 05:20:37;;;;;;;17.00;15.05;;;9.90;96.70;;;;;;4925845;29;20054;-83
2020/12/20 05:23:08;;;;;;;16.92;15.05;;;9.90;96.70;;;;;;4943677;28;20064;-82
2020/12/20 05:25:37;;;;;;;20.15;15.60;;;9.90;96.70;;;;;;4943931;28;20039;-83
2020/12/20 05:28:07;;;;;;;16.10;13.85;;;9.90;96.70;;;;;;4948043;28;20051;-83
2020/12/20 05:30:39;;;;;;;17.23;14.30;;;9.90;96.70;;;;;;4948616;28;20035;-83
2020/12/20 05:33:28;;;;;;;16.00;14.30;;;9.90;96.70;;;;;;4939896;29;20493;-83
2020/12/20 05:36:08;;;;;;;16.67;13.73;;;9.90;96.70;;;;;;4948461;28;20149;-83
2020/12/20 05:38:38;;;;;;;15.73;13.57;;;9.90;96.70;;;;;;4942173;28;20047;-83
2020/12/20 05:41:08;;;;;;;16.95;14.38;;;9.90;96.70;;;;;;4942970;28;20624;-83
2020/12/20 05:43:36;;;;;;;16.88;14.68;;;9.90;96.70;;;;;;4942237;28;20031;-83
2020/12/20 05:46:05;;;;;;;15.30;13.65;;;9.80;96.70;;;;;;4931293;29;20051;-82
2020/12/20 05:48:41;;;;;;;15.23;13.23;;;9.80;96.70;;;;;;4938913;29;20054;-83
2020/12/20 05:51:12;;;;;;;14.73;13.10;;;9.80;96.70;;;;;;4944528;29;20494;-83
2020/12/20 05:53:41;;;;;;;17.80;13.82;;;9.80;96.70;;;;;;4932366;28;20251;-83
2020/12/20 05:56:18;;;;;;;16.02;12.95;;;9.80;96.70;;;;;;4944034;28;20035;-82
2020/12/20 05:58:46;;;;;;;15.20;12.40;;;9.70;96.70;;;;;;4964974;28;20159;-83
2020/12/20 06:01:17;;;;;;;15.70;12.98;;;9.70;96.70;;;;;;4947195;28;20545;-83
2020/12/20 06:03:46;;;;;;;17.15;13.13;;;9.70;96.70;;;;;;4944030;28;20043;-83
2020/12/20 06:06:17;;;;;;;16.55;14.43;;;9.80;96.70;;;;;;4947716;28;20098;-83
2020/12/20 06:08:49;;;;;;;17.20;13.20;;;9.80;96.70;;;;;;4951126;28;20055;-83
2020/12/20 06:11:23;;;;;;;17.70;14.27;;;9.80;96.70;;;;;;4952798;28;20039;-82
2020/12/20 06:13:54;;;;;;;20.15;15.93;;;9.80;96.70;;;;;;4943740;28;20388;-83
2020/12/20 06:16:25;;;;;;;22.65;16.40;;;9.70;96.70;;;;;;4941625;29;20047;-83
2020/12/20 06:19:03;;;;;;;18.10;14.90;;;9.70;96.70;;;;;;4930472;29;20114;-83
2020/12/20 06:21:57;;;;;;;19.15;14.60;;;9.70;96.70;;;;;;4927817;29;20043;-82
2020/12/20 06:24:27;;;;;;;18.40;14.23;;;9.70;96.70;;;;;;4965929;28;20047;-82
2020/12/20 06:27:01;;;;;;;17.20;13.50;;;9.70;96.70;;;;;;4943919;28;20035;-84
2020/12/20 06:29:30;;;;;;;16.33;13.93;;;9.70;96.70;;;;;;4945325;28;20039;-83
2020/12/20 06:32:00;;;;;;;15.63;13.90;;;9.70;96.70;;;;;;4930641;28;20050;-82
2020/12/20 06:34:28;;;;;;;16.60;13.50;;;9.60;96.70;;;;;;4948420;28;20066;-82
2020/12/20 06:36:58;;;;;;;17.77;14.40;;;9.60;96.70;;;;;;4929484;28;20141;-82
2020/12/20 06:39:40;;;;;;;15.32;13.57;;;9.60;96.70;;;;;;4947325;28;20121;-82
2020/12/20 06:42:07;;;;;;;16.27;13.57;;;9.70;96.70;;;;;;4943841;28;20071;-83
2020/12/20 06:44:35;;;;;;;15.57;13.57;;;9.70;96.70;;;;;;4946622;28;20035;-83
2020/12/20 06:47:02;;;;;;;18.70;13.55;;;9.60;96.70;;;;;;4944725;28;20472;-83
2020/12/20 06:49:33;;;;;;;17.77;13.20;;;9.50;96.70;;;;;;4954046;28;20055;-82
2020/12/20 06:52:18;;;;;;;15.20;13.15;;;9.50;96.70;;;;;;4943167;28;20578;-83
2020/12/20 06:55:04;;;;;;;14.27;12.27;;;9.60;96.70;;;;;;4935022;29;20111;-83
2020/12/20 06:57:32;;;;;;;16.38;13.75;;;9.70;96.70;;;;;;4945717;28;20049;-82
2020/12/20 07:00:00;;;;;;;17.55;14.20;;;9.60;96.70;;;;;;4928372;29;20058;-82
2020/12/20 07:02:44;;;;;;;17.67;13.98;;;9.50;96.70;;;;;;4928457;29;20051;-83
2020/12/20 07:05:35;;;;;;;14.93;13.32;;;9.50;96.70;;;;;;4942613;28;20048;-83
2020/12/20 07:08:13;;;;;;;15.90;13.95;;;9.50;96.70;;;;;;4929514;29;20088;-83
2020/12/20 07:10:42;;;;;;;16.85;15.05;;;9.60;96.70;;;;;;4944955;28;20106;-83
2020/12/20 07:13:11;;;;;;;17.35;14.43;;;9.60;96.70;;;;;;4943984;28;20058;-82
2020/12/20 07:15:49;;;;;;;17.55;14.95;;;9.60;96.70;;;;;;4945355;28;20050;-83
2020/12/20 07:18:46;;;;;;;18.33;15.00;;;9.70;96.70;;;;;;4946533;28;20055;-83
2020/12/20 07:21:33;;;;;;;18.00;14.13;;;9.70;96.70;;;;;;4942970;28;20043;-83
2020/12/20 07:24:03;;;;;;;17.42;14.75;;;9.70;96.70;;;;;;4944458;28;20443;-83
2020/12/20 07:26:30;;;;;;;17.92;14.73;;;9.70;96.70;;;;;;4947977;28;20039;-83
2020/12/20 07:28:59;;;;;;;15.88;13.85;;;9.70;96.70;;;;;;4929264;29;20135;-83
2020/12/20 07:31:27;;;;;;;15.48;13.70;;;9.70;96.70;;;;;;4945253;28;20051;-82
2020/12/20 07:33:55;;;;;;;16.90;15.07;;;9.80;96.70;;;;;;4944271;28;20043;-82
2020/12/20 07:36:22;;;;;;;17.13;14.05;;;9.80;96.70;;;;;;4929847;29;20095;-83
2020/12/20 07:38:50;;;;;;;16.90;13.82;;;9.80;96.70;;;;;;4944299;28;20438;-83
2020/12/20 07:41:19;;;;;;;15.70;14.00;;;9.80;96.70;;;;;;4946404;28;20042;-83
2020/12/20 07:43:46;;;;;;;18.08;14.35;;;9.90;96.70;;;;;;4943455;29;20098;-83
2020/12/20 07:46:15;;;;;;;16.45;14.05;;;9.90;96.70;;;;;;4953976;28;20501;-83
2020/12/20 07:48:44;;;;;;;15.10;13.15;;;9.90;96.70;;;;;;4940683;28;20035;-89
2020/12/20 07:51:13;;;;;;;15.25;13.65;;;10.00;96.70;;;;;;4949258;28;20270;-91
2020/12/20 07:53:47;;;;;;;19.42;13.43;;;10.00;96.70;;;;;;4949380;28;20074;-87
2020/12/20 07:56:22;;;;;;;17.25;13.85;;;10.00;96.70;;;;;;4943438;28;20045;-83
2020/12/20 07:58:50;;;;;;;15.70;13.50;;;10.00;96.70;;;;;;4931075;28;20048;-84
2020/12/20 08:01:17;;;;;;;16.17;12.98;;;10.00;96.70;;;;;;4945950;28;20125;-81
2020/12/20 08:03:46;;;;;;;16.25;13.52;;;10.10;96.70;;;;;;4946013;28;20466;-89
2020/12/20 08:06:15;;;;;;;16.17;12.70;;;10.10;96.70;;;;;;4931256;29;20637;-86
2020/12/20 08:08:45;;;;;;;17.42;13.73;;;10.10;96.70;;;;;;4926342;29;20071;-91
2020/12/20 08:11:20;;;;;;;14.98;12.75;;;10.10;96.70;;;;;;4927910;29;20138;-86
2020/12/20 08:13:53;;;;;;;15.35;13.50;;;10.20;96.70;;;;;;4944899;28;20051;-87
2020/12/20 08:16:23;;;;;;;17.20;13.75;;;10.20;96.70;;;;;;4953629;28;20050;-85
2020/12/20 08:18:53;;;;;;;17.30;13.27;;;10.30;96.70;;;;;;4944539;28;20130;-86
2020/12/20 08:21:27;;;;;;;17.65;14.45;;;10.30;96.70;;;;;;4944011;28;20055;-86
2020/12/20 08:24:05;;;;;;;16.33;13.55;;;10.40;96.70;;;;;;4946235;28;20035;-86
2020/12/20 08:26:34;;;;;;;15.80;12.75;;;10.40;96.70;;;;;;4950414;28;20042;-85
2020/12/20 08:29:02;;;;;;;15.25;13.60;;;10.40;96.70;;;;;;4946129;28;20138;-87
2020/12/20 08:31:43;;;;;;;16.58;13.43;;;10.50;96.70;;;;;;4944207;28;20098;-86
2020/12/20 08:34:16;;;;;;;18.05;14.02;;;10.50;96.70;;;;;;4945880;28;20069;-85
2020/12/20 08:36:45;;;;;;;16.85;14.20;;;10.60;96.70;;;;;;4944549;28;20134;-85
2020/12/20 08:39:13;;;;;;;15.98;14.35;;;10.60;96.70;;;;;;4945629;28;20047;-84
2020/12/20 08:41:41;;;;;;;18.45;15.82;;;10.60;96.70;;;;;;4925047;29;20070;-85
2020/12/20 08:44:09;;;;;;;17.42;15.50;;;10.70;96.70;;;;;;4949818;28;20094;-85
2020/12/20 08:46:38;;;;;;;16.95;15.07;;;10.70;96.70;;;;;;4945129;28;20079;-85
2020/12/20 08:49:16;;;;;;;18.40;15.88;;;10.70;96.70;;;;;;4930698;29;20054;-86
2020/12/20 08:51:48;;;;;;;17.45;15.45;;;10.70;96.70;;;;;;4927112;28;20043;-86
2020/12/20 08:54:24;;;;;;;22.40;16.33;;;10.70;96.70;;;;;;4943569;28;20525;-87
2020/12/20 08:56:58;;;;;;;18.70;15.75;;;10.80;96.70;;;;;;4940837;29;20075;-88
2020/12/20 08:59:30;;;;;;;19.42;16.05;;;10.80;96.70;;;;;;4928188;29;20055;-88
2020/12/20 09:01:59;;;;;;;17.48;15.38;;;10.80;96.70;;;;;;4944601;28;20107;-88
2020/12/20 09:04:28;;;;;;;18.77;15.93;;;10.90;96.70;;;;;;4943575;29;20586;-89
2020/12/20 09:07:05;;;;;;;19.70;16.35;;;10.90;96.70;;;;;;4953556;28;20110;-86
2020/12/20 09:09:32;;;;;;;19.90;17.00;;;10.90;96.70;;;;;;4943811;29;20573;-84
2020/12/20 09:12:15;;;;;;;19.08;16.85;;;11.00;96.70;;;;;;4941166;28;20263;-85
2020/12/20 09:15:01;;;;;;;21.42;16.17;;;11.10;96.70;;;;;;4920151;29;20121;-85
2020/12/20 09:17:30;;;;;;;19.58;16.17;;;11.10;96.70;;;;;;4931260;29;20039;-86
2020/12/20 09:19:59;;;;;;;19.63;16.17;;;11.10;96.70;;;;;;4943904;28;20919;-86
2020/12/20 09:22:42;;;;;;;17.98;16.13;;;11.20;96.70;;;;;;4942520;28;20141;-84
2020/12/20 09:25:10;;;;;;;21.27;17.05;;;11.30;96.70;;;;;;4944833;28;20047;-86
2020/12/20 09:27:37;;;;;;;20.15;16.08;;;11.30;96.70;;;;;;4928885;29;20101;-85
2020/12/20 09:30:05;;;;;;;18.23;15.73;;;11.40;96.70;;;;;;4897869;28;20062;-84
2020/12/20 09:32:36;;;;;;;21.67;16.48;;;11.40;96.70;;;;;;4927969;29;20050;-85
2020/12/20 09:35:09;;;;;;;17.50;15.55;;;11.40;96.70;;;;;;4943684;28;20042;-85
2020/12/20 09:37:41;;;;;;;17.80;15.30;;;11.40;96.70;;;;;;4944409;28;20047;-85
2020/12/20 09:40:09;;;;;;;17.73;14.77;;;11.50;96.70;;;;;;4945578;28;20058;-84
2020/12/20 09:42:38;;;;;;;17.80;15.25;;;11.50;96.70;;;;;;4928208;29;20504;-85
2020/12/20 09:45:06;;;;;;;17.08;15.07;;;11.60;96.70;;;;;;4947997;28;20073;-82
2020/12/20 09:47:39;;;;;;;19.70;15.35;;;11.60;96.70;;;;;;4945073;29;20055;-82
2020/12/20 09:50:08;;;;;;;16.95;15.15;;;11.70;96.70;;;;;;4947369;28;20081;-85
2020/12/20 09:52:36;;;;;;;21.52;16.75;;;11.80;96.70;;;;;;4921836;29;20044;-82
2020/12/20 09:55:05;;;;;;;19.45;15.57;;;11.90;96.70;;;;;;4948919;28;20553;-82
2020/12/20 09:57:32;;;;;;;17.88;15.90;;;12.00;96.70;;;;;;4942636;29;20110;-85
2020/12/20 10:00:00;;;;;;;18.70;16.30;;;12.00;96.70;;;;;;4946887;28;20035;-85
2020/12/20 10:02:37;;;;;;;17.02;14.43;;;12.10;96.70;;;;;;4932452;28;20147;-84
2020/12/20 10:05:08;;;;;;;20.15;15.65;;;12.10;96.70;;;;;;4942136;28;20027;-86
2020/12/20 10:07:35;;;;;;;16.00;14.30;;;12.20;96.70;;;;;;4944372;28;21288;-88
2020/12/20 10:10:04;;;;;;;18.52;14.88;;;12.20;96.70;;;;;;4945206;28;20134;-84
2020/12/20 10:12:31;;;;;;;17.23;13.57;;;12.30;96.70;;;;;;4943522;28;20085;-86
2020/12/20 10:14:58;;;;;;;16.85;14.00;;;12.40;96.70;;;;;;4945837;28;20119;-82
2020/12/20 10:17:26;;;;;;;17.45;14.27;;;12.50;96.70;;;;;;4944791;28;20592;-85
2020/12/20 10:19:53;;;;;;;17.50;14.65;;;12.60;96.70;;;;;;4933450;28;20058;-89
2020/12/20 10:22:21;;;;;;;16.88;14.15;;;12.70;96.70;;;;;;4946231;28;20539;-87
2020/12/20 10:24:48;;;;;;;17.88;14.38;;;12.90;96.70;;;;;;4945132;28;20405;-87
2020/12/20 10:27:18;;;;;;;16.50;14.23;;;12.90;96.70;;;;;;4944947;28;20526;-91
2020/12/20 10:29:45;;;;;;;16.38;13.30;;;13.10;96.70;;;;;;4931968;29;20049;-88
2020/12/20 10:32:13;;;;;;;15.88;13.43;;;13.20;96.70;;;;;;4936709;28;20043;-83
2020/12/20 10:34:40;;;;;;;18.42;13.05;;;13.30;96.70;;;;;;4943065;29;20122;-85
2020/12/20 10:37:08;;;;;;;16.90;13.52;;;13.40;96.70;;;;;;4945215;28;20154;-84
2020/12/20 10:39:36;;;;;;;13.82;11.95;;;13.60;96.70;;;;;;4944651;28;20047;-85
2020/12/20 10:42:03;;;;;;;17.20;12.77;;;13.70;96.70;;;;;;4949739;28;20031;-86
2020/12/20 10:44:30;;;;;;;15.20;12.00;;;13.70;96.70;;;;;;4951571;28;20051;-81
2020/12/20 10:46:57;;;;;;;14.27;12.32;;;13.70;96.70;;;;;;4931613;29;20298;-86
2020/12/20 10:49:25;;;;;;;15.52;12.38;;;13.60;96.70;;;;;;4937811;28;20133;-85
2020/12/20 10:51:53;;;;;;;12.38;10.95;;;13.60;96.70;;;;;;4932158;28;20063;-90
2020/12/20 10:54:21;;;;;;;12.98;11.13;;;13.50;96.70;;;;;;4948722;29;20046;-91
2020/12/20 10:56:49;;;;;;;12.73;11.10;;;13.50;96.70;;;;;;4943170;28;20039;-91
2020/12/20 10:59:16;;;;;;;13.13;11.55;;;13.40;96.70;;;;;;4952322;28;20841;-91
2020/12/20 11:01:43;;;;;;;14.43;12.65;;;13.40;96.70;;;;;;4934206;29;20086;-89
2020/12/20 11:04:10;;;;;;;13.90;12.30;;;13.40;96.70;;;;;;4931332;29;20054;-90
2020/12/20 11:06:37;;;;;;;13.20;10.70;;;13.40;96.70;;;;;;4930181;29;20046;-91
2020/12/20 11:09:05;;;;;;;12.68;10.80;;;13.60;96.70;;;;;;4931706;29;20051;-87
2020/12/20 11:11:32;;;;;;;11.90;9.88;;;13.60;96.70;;;;;;4954346;28;20058;-89
2020/12/20 11:14:01;;;;;;;13.52;10.50;;;13.80;96.70;;;;;;4948853;28;20047;-89
2020/12/20 11:16:28;;;;;;;13.70;10.20;;;13.90;96.70;;;;;;4949558;28;20039;-88
2020/12/20 11:18:56;;;;;;;14.68;11.07;;;14.10;96.70;;;;;;4934007;29;20087;-89
2020/12/20 11:21:23;;;;;;;13.05;11.15;;;14.30;96.70;;;;;;4954247;28;20058;-88
2020/12/20 11:23:50;;;;;;;13.23;10.82;;;14.40;96.70;;;;;;4948237;28;20043;-88
2020/12/20 11:26:19;;;;;;;13.05;11.30;;;14.50;96.70;;;;;;4933025;29;20043;-88
2020/12/20 11:28:47;;;;;;;16.20;11.15;;;14.50;96.70;;;;;;4932661;29;20060;-90
2020/12/20 11:31:18;;;;;;;13.98;11.98;;;14.50;96.70;;;;;;4953837;28;20051;-89
2020/12/20 11:33:45;;;;;;;13.10;9.98;;;14.70;96.70;;;;;;4949479;28;20412;-83
2020/12/20 11:36:15;;;;;;;12.38;9.75;;;14.80;96.70;;;;;;4950739;28;20043;-90
2020/12/20 11:38:43;;;;;;;11.77;8.48;;;14.90;96.70;;;;;;4931553;29;20130;-89
2020/12/20 11:41:10;;;;;;;10.63;8.75;;;15.00;96.70;;;;;;4949072;28;20501;-88
2020/12/20 11:43:38;;;;;;;11.50;8.70;;;15.10;96.70;;;;;;4946140;28;20134;-88
2020/12/20 11:46:06;;;;;;;8.30;7.50;;;15.20;96.70;;;;;;4953599;28;20059;-88
2020/12/20 11:48:34;;;;;;;8.75;7.75;;;15.30;96.70;;;;;;4947094;28;20032;-89
2020/12/20 11:51:01;;;;;;;13.48;11.98;;;15.40;96.70;;;;;;4930541;28;20070;-85
2020/12/20 11:53:28;;;;;;;14.52;13.13;;;15.40;96.70;;;;;;4929663;28;20492;-91
2020/12/20 11:56:15;;;;;;;15.13;12.73;;;15.30;96.70;;;;;;4948985;28;20098;-91
2020/12/20 11:58:43;;;;;;;17.20;12.80;;;15.40;96.70;;;;;;4949744;28;20118;-90
2020/12/20 12:01:11;;;;;;;14.23;11.70;;;15.50;96.70;;;;;;4949493;28;20047;-91
2020/12/20 12:03:39;;;;;;;14.00;12.15;;;15.60;96.70;;;;;;4947544;28;20039;-88
2020/12/20 12:06:06;;;;;;;17.27;13.27;;;15.80;96.70;;;;;;4937174;29;20501;-90
2020/12/20 12:08:33;;;;;;;15.48;13.40;;;15.90;96.70;;;;;;4951769;28;20059;-91
2020/12/20 12:11:01;;;;;;;16.27;13.88;;;16.00;96.70;;;;;;4937893;29;20461;-87
2020/12/20 12:13:28;;;;;;;14.75;13.25;;;16.10;96.70;;;;;;4931573;28;20698;-90
2020/12/20 12:15:55;;;;;;;11.43;10.07;;;16.10;96.70;;;;;;4930311;29;20043;-90
2020/12/20 12:18:23;;;;;;;10.43;9.32;;;16.10;96.70;;;;;;4952066;28;20630;-87
2020/12/20 12:20:51;;;;;;;13.63;11.88;;;16.30;96.70;;;;;;4931390;29;20043;-88
2020/12/20 12:23:18;;;;;;;14.95;11.82;;;16.40;96.70;;;;;;4933001;28;20772;-90
2020/12/20 12:25:45;;;;;;;13.38;11.95;;;16.40;96.70;;;;;;4949565;28;20541;-89
2020/12/20 12:28:12;;;;;;;13.02;10.65;;;16.40;96.70;;;;;;4948184;28;20703;-90
2020/12/20 12:30:40;;;;;;;12.38;8.90;;;16.50;96.70;;;;;;4932750;29;20035;-90
2020/12/20 12:33:07;;;;;;;10.25;9.13;;;16.60;96.70;;;;;;4952906;28;20043;-90
2020/12/20 12:35:34;;;;;;;11.32;9.05;;;16.50;96.70;;;;;;4947332;28;20126;-90
2020/12/20 12:38:02;;;;;;;10.93;8.95;;;16.40;96.70;;;;;;4947689;28;20043;-90
2020/12/20 12:40:30;;;;;;;10.57;8.20;;;16.20;96.60;;;;;;4948169;28;21003;-90
2020/12/20 12:42:57;;;;;;;9.55;8.32;;;16.10;96.70;;;;;;4951757;28;20035;-89
2020/12/20 12:45:25;;;;;;;17.83;14.02;;;16.00;96.70;;;;;;4962102;28;20055;-91
2020/12/20 12:47:53;;;;;;;9.35;8.35;;;15.90;96.70;;;;;;4927634;29;20064;-90
2020/12/20 12:50:20;;;;;;;13.15;9.95;;;15.80;96.70;;;;;;4929507;29;20506;-90